createdAt,value
2018-12-16T00:35:51.472Z,13.00
2018-12-16T00:38:24.661Z,14.70
2018-12-16T00:40:57.274Z,13.30
2018-12-16T00:43:29.878Z,14.15
2018-12-16T00:46:02.707Z,14.87
2018-12-16T00:48:35.302Z,15.05
2018-12-16T00:51:08.869Z,13.53
2018-12-16T00:53:41.506Z,13.50
2018-12-16T00:56:14.144Z,15.05
2018-12-16T00:58:46.621Z,15.08
2018-12-16T01:01:19.949Z,15.38
2018-12-16T01:03:52.664Z,13.40
2018-12-16T01:06:25.213Z,13.43
2018-12-16T01:08:57.883Z,13.28
2018-12-16T01:11:30.422Z,14.05
2018-12-16T01:14:03.328Z,15.48
2018-12-16T01:16:37.110Z,15.53
2018-12-16T01:19:10.354Z,15.03
2018-12-16T01:21:42.938Z,14.25
2018-12-16T01:24:15.475Z,13.93
2018-12-16T01:26:48.086Z,15.55
2018-12-16T01:29:20.645Z,13.95
2018-12-16T01:31:53.321Z,13.53
2018-12-16T01:34:25.888Z,16.23
2018-12-16T01:36:58.506Z,15.15
2018-12-16T01:39:31.470Z,13.48
2018-12-16T01:42:03.994Z,13.45
2018-12-16T01:44:36.563Z,13.60
2018-12-16T01:47:09.192Z,15.65
2018-12-16T01:49:41.874Z,14.38
2018-12-16T01:52:15.043Z,14.83
2018-12-16T01:54:47.610Z,12.85
2018-12-16T01:57:20.148Z,13.85
2018-12-16T01:59:52.759Z,13.88
2018-12-16T02:02:25.343Z,14.43
2018-12-16T02:04:57.957Z,15.60
2018-12-16T02:07:30.588Z,14.47
2018-12-16T02:10:04.088Z,13.10
2018-12-16T02:12:36.799Z,13.58
2018-12-16T02:15:09.595Z,13.22
2018-12-16T02:17:44.326Z,12.65
2018-12-16T02:20:16.915Z,14.55
2018-12-16T02:22:49.503Z,13.38
2018-12-16T02:25:22.106Z,14.78
2018-12-16T02:27:55.140Z,12.07
2018-12-16T02:30:27.732Z,13.65
2018-12-16T02:33:00.320Z,13.70
2018-12-16T02:35:33.045Z,15.45
2018-12-16T02:38:05.744Z,14.23
2018-12-16T02:40:38.483Z,14.85
2018-12-16T02:43:11.027Z,12.80
2018-12-16T02:45:43.812Z,12.90
2018-12-16T02:48:17.283Z,15.50
2018-12-16T02:50:50.398Z,13.53
2018-12-16T02:53:23.481Z,11.97
2018-12-16T02:55:56.060Z,13.15
2018-12-16T02:58:28.735Z,12.50
2018-12-16T03:01:01.307Z,14.55
2018-12-16T03:03:35.393Z,14.15
2018-12-16T03:06:07.903Z,11.43
2018-12-16T03:08:41.633Z,13.15
2018-12-16T03:11:14.233Z,12.93
2018-12-16T03:13:46.923Z,13.90
2018-12-16T03:16:20.423Z,12.70
2018-12-16T03:18:53.124Z,11.78
2018-12-16T03:21:25.615Z,12.70
2018-12-16T03:23:58.261Z,13.40
2018-12-16T03:26:35.962Z,14.07
2018-12-16T03:29:05.427Z,14.20
2018-12-16T03:31:38.002Z,12.45
2018-12-16T03:34:10.792Z,14.40
2018-12-16T03:36:43.444Z,14.05
2018-12-16T03:39:16.102Z,12.30
2018-12-16T03:41:48.732Z,14.73
2018-12-16T03:44:21.827Z,14.45
2018-12-16T03:46:55.071Z,11.38
2018-12-16T03:49:27.664Z,12.07
2018-12-16T03:52:00.219Z,11.95
2018-12-16T03:54:32.830Z,12.98
2018-12-16T03:57:05.397Z,12.98
2018-12-16T03:59:37.909Z,13.30
2018-12-16T04:02:10.533Z,11.53
2018-12-16T04:04:43.039Z,13.58
2018-12-16T04:07:15.650Z,12.82
2018-12-16T04:09:48.211Z,13.25
2018-12-16T04:12:20.780Z,11.65
2018-12-16T04:14:55.254Z,12.23
2018-12-16T04:17:27.825Z,12.55
2018-12-16T04:20:00.385Z,13.10
2018-12-16T04:22:32.911Z,12.10
2018-12-16T04:25:06.198Z,13.08
2018-12-16T04:27:38.796Z,11.30
2018-12-16T04:30:11.384Z,12.05
2018-12-16T04:32:43.957Z,11.73
2018-12-16T04:35:16.570Z,13.28
2018-12-16T04:37:49.132Z,13.48
2018-12-16T04:40:21.697Z,10.40
2018-12-16T04:42:54.302Z,15.32
2018-12-16T04:45:27.712Z,13.80
2018-12-16T04:48:00.282Z,10.28
2018-12-16T04:50:32.954Z,11.95
2018-12-16T04:53:05.645Z,13.45
2018-12-16T04:55:38.205Z,12.30
2018-12-16T04:58:10.803Z,12.82
2018-12-16T05:00:44.789Z,12.10
2018-12-16T05:03:17.300Z,14.43
2018-12-16T05:05:49.834Z,11.53
2018-12-16T05:08:22.425Z,12.55
2018-12-16T05:10:55.053Z,11.53
2018-12-16T05:13:28.250Z,13.60
2018-12-16T05:16:00.839Z,12.07
2018-12-16T05:18:33.977Z,12.75
2018-12-16T05:21:06.561Z,11.83
2018-12-16T05:23:41.982Z,11.85
2018-12-16T05:26:13.721Z,12.98
2018-12-16T05:28:46.321Z,14.25
2018-12-16T05:31:18.851Z,12.80
2018-12-16T05:33:52.177Z,12.80
2018-12-16T05:36:24.799Z,12.75
2018-12-16T05:38:58.776Z,14.13
2018-12-16T05:41:32.533Z,13.25
2018-12-16T05:44:05.136Z,12.47
2018-12-16T05:46:37.744Z,13.05
2018-12-16T05:49:10.332Z,13.70
2018-12-16T05:51:42.898Z,13.13
2018-12-16T05:54:15.469Z,11.83
2018-12-16T05:56:48.033Z,13.85
2018-12-16T05:59:20.633Z,11.55
2018-12-16T06:01:53.104Z,12.68
2018-12-16T06:04:25.691Z,14.33
2018-12-16T06:06:58.265Z,13.18
2018-12-16T06:09:30.846Z,14.75
2018-12-16T06:12:03.550Z,15.50
2018-12-16T06:14:36.140Z,11.95
2018-12-16T06:17:08.697Z,11.97
2018-12-16T06:19:41.276Z,13.78
2018-12-16T06:22:13.797Z,13.43
2018-12-16T06:24:46.379Z,14.58
2018-12-16T06:27:18.942Z,13.48
2018-12-16T06:29:51.880Z,14.23
2018-12-16T06:32:24.526Z,14.60
2018-12-16T06:34:57.112Z,13.30
2018-12-16T06:37:29.687Z,14.25
2018-12-16T06:40:02.381Z,13.88
2018-12-16T06:42:35.614Z,12.65
2018-12-16T06:45:08.236Z,14.70
2018-12-16T06:47:40.786Z,12.90
2018-12-16T06:50:13.384Z,13.95
2018-12-16T06:52:45.937Z,13.95
2018-12-16T06:55:18.503Z,14.40
2018-12-16T06:57:51.223Z,13.43
2018-12-16T07:00:23.855Z,16.50
2018-12-16T07:02:56.469Z,13.95
2018-12-16T07:05:29.075Z,15.95
2018-12-16T07:08:01.632Z,13.65
2018-12-16T07:10:34.576Z,14.00
2018-12-16T07:13:07.159Z,13.72
2018-12-16T07:15:39.739Z,14.03
2018-12-16T07:18:12.420Z,14.23
2018-12-16T07:20:45.766Z,13.72
2018-12-16T07:23:18.578Z,14.73
2018-12-16T07:25:51.257Z,14.40
2018-12-16T07:28:23.873Z,16.00
2018-12-16T07:30:56.441Z,14.25
2018-12-16T07:33:28.961Z,15.63
2018-12-16T07:36:01.591Z,14.15
2018-12-16T07:38:34.158Z,15.65
2018-12-16T07:41:06.997Z,13.78
2018-12-16T07:43:40.187Z,15.58
2018-12-16T07:46:12.761Z,16.10
2018-12-16T07:48:45.895Z,13.85
2018-12-16T07:51:18.442Z,14.00
2018-12-16T07:53:50.967Z,15.23
2018-12-16T07:56:23.599Z,16.05
2018-12-16T07:58:56.193Z,14.87
2018-12-16T08:01:28.920Z,16.07
2018-12-16T08:04:01.621Z,15.45
2018-12-16T08:06:34.377Z,16.37
2018-12-16T08:09:07.243Z,16.00
2018-12-16T08:11:44.751Z,14.47
2018-12-16T08:14:17.303Z,16.35
2018-12-16T08:16:50.823Z,16.15
2018-12-16T08:19:23.551Z,17.32
2018-12-16T08:21:56.252Z,17.07
2018-12-16T08:24:28.822Z,17.57
2018-12-16T08:27:02.107Z,17.98
2018-12-16T08:29:36.427Z,16.37
2018-12-16T08:32:09.103Z,16.35
2018-12-16T08:34:43.398Z,19.45
2018-12-16T08:37:16.011Z,15.50
2018-12-16T08:39:48.560Z,16.80
2018-12-16T08:42:21.157Z,16.17
2018-12-16T08:44:53.779Z,17.37
2018-12-16T08:47:32.912Z,18.02
2018-12-16T08:50:00.975Z,17.80
2018-12-16T08:52:33.664Z,17.48
2018-12-16T08:55:06.469Z,18.37
2018-12-16T08:57:40.303Z,14.43
2018-12-16T09:00:12.922Z,17.60
2018-12-16T09:02:45.585Z,18.05
2018-12-16T09:05:19.822Z,15.48
2018-12-16T09:07:53.070Z,17.48
2018-12-16T09:10:26.467Z,18.67
2018-12-16T09:12:59.237Z,18.60
2018-12-16T09:15:32.517Z,19.57
2018-12-16T09:18:05.210Z,19.10
2018-12-16T09:20:37.848Z,18.25
2018-12-16T09:23:10.579Z,17.00
2018-12-16T09:25:43.909Z,17.30
2018-12-16T09:28:16.448Z,18.27
2018-12-16T09:37:38.373Z,16.75
2018-12-16T09:40:11.080Z,18.30
2018-12-16T09:42:43.807Z,18.70
2018-12-16T09:45:16.469Z,18.48
2018-12-16T09:47:50.082Z,17.12
2018-12-16T09:50:22.944Z,17.62
2018-12-16T09:52:55.905Z,16.97
2018-12-16T09:55:28.611Z,17.17
2018-12-16T09:58:01.389Z,17.80
2018-12-16T10:00:34.040Z,16.85
2018-12-16T10:03:07.237Z,19.15
2018-12-16T10:05:40.481Z,19.07
2018-12-16T10:08:13.113Z,18.10
2018-12-16T10:10:45.706Z,19.95
2018-12-16T10:13:18.392Z,18.73
2018-12-16T10:19:27.193Z,17.55
2018-12-16T10:22:00.858Z,17.55
2018-12-16T10:24:33.620Z,17.32
2018-12-16T10:27:06.343Z,17.12
2018-12-16T10:29:39.203Z,19.17
2018-12-16T10:32:11.977Z,19.55
2018-12-16T10:34:47.734Z,19.80
2018-12-16T10:37:20.526Z,19.45
2018-12-16T10:39:53.255Z,16.60
2018-12-16T10:42:25.961Z,17.40
2018-12-16T10:44:58.613Z,19.87
2018-12-16T10:47:33.023Z,21.27
2018-12-16T10:50:06.693Z,20.95
2018-12-16T10:52:39.974Z,18.50
2018-12-16T10:55:12.685Z,20.60
2018-12-16T10:57:45.476Z,19.10
2018-12-16T11:00:24.956Z,20.60
2018-12-16T11:02:57.804Z,20.15
2018-12-16T11:05:30.710Z,20.48
2018-12-16T11:08:03.986Z,20.95
2018-12-16T11:10:36.814Z,21.62
2018-12-16T11:13:10.164Z,18.05
2018-12-16T11:15:42.852Z,21.85
2018-12-16T11:18:15.712Z,22.87
2018-12-16T11:20:48.422Z,18.50
2018-12-16T22:38:31.543Z,70.10
2018-12-16T22:41:04.231Z,64.07
2018-12-16T22:43:36.862Z,66.62
2018-12-16T22:46:09.783Z,69.67
2018-12-16T22:48:42.497Z,66.15
2018-12-16T22:51:16.728Z,67.50
2018-12-16T22:53:50.962Z,59.73
2018-12-16T22:56:23.686Z,55.88
2018-12-16T22:58:56.286Z,60.60
2018-12-16T23:01:28.900Z,55.03
2018-12-16T23:04:01.774Z,68.70
2018-12-16T23:06:34.489Z,73.80
2018-12-16T23:09:07.223Z,73.25
2018-12-16T23:11:41.810Z,73.07
2018-12-16T23:14:14.549Z,78.67
2018-12-16T23:16:47.229Z,72.97
2018-12-16T23:19:19.957Z,88.85
2018-12-16T23:21:56.571Z,80.42
2018-12-16T23:24:30.395Z,75.30
2018-12-16T23:27:03.595Z,75.03
2018-12-16T23:29:36.706Z,69.37
2018-12-16T23:32:09.346Z,56.15
2018-12-16T23:34:41.921Z,81.42
2018-12-16T23:37:18.625Z,61.70
2018-12-16T23:39:53.236Z,52.93
2018-12-16T23:42:25.896Z,52.93
2018-12-16T23:44:58.590Z,52.20
2018-12-16T23:47:31.146Z,46.85
2018-12-16T23:50:05.317Z,53.58
2018-12-16T23:52:39.057Z,63.52
2018-12-16T23:55:11.923Z,55.45
2018-12-16T23:57:44.738Z,50.28
